Time;durP1;ratioP1;P1;durP2;ratioP2;P2;SDS_P1;SDS_P2;PMS_P1;PMS_P2;Temp;Humidity;BMP_temperature;BMP_pressure;BME280_temperature;BME280_humidity;BME280_pressure;Samples;Min_cycle;Max_cycle;Signal;HPM_P1;HPM_P2
2023/05/15 00:00:10;;;;;;;62.53;37.28;;;11.30;99.90;;;;;;4952337;28;20052;-75
2023/05/15 00:02:37;;;;;;;62.15;35.85;;;11.30;99.90;;;;;;4952878;29;20042;-75
2023/05/15 00:05:12;;;;;;;62.08;37.65;;;11.30;99.90;;;;;;4952732;29;20443;-75
2023/05/15 00:07:39;;;;;;;64.00;37.38;;;11.30;99.90;;;;;;4945823;29;20065;-75
2023/05/15 00:10:05;;;;;;;59.85;38.00;;;11.30;99.90;;;;;;4954285;29;20406;-75
2023/05/15 00:12:31;;;;;;;61.80;36.53;;;11.30;99.90;;;;;;4952997;28;20067;-75
2023/05/15 00:14:57;;;;;;;67.78;38.30;;;11.30;99.90;;;;;;4944072;29;20031;-75
2023/05/15 00:17:23;;;;;;;67.13;38.67;;;11.30;99.90;;;;;;4947563;29;20106;-75
2023/05/15 00:19:48;;;;;;;63.58;38.33;;;11.30;99.90;;;;;;4938589;29;20031;-75
2023/05/15 00:22:15;;;;;;;63.00;38.20;;;11.20;99.90;;;;;;4951096;29;20112;-74
2023/05/15 00:24:41;;;;;;;62.80;36.35;;;11.30;99.90;;;;;;4953264;29;20070;-75
2023/05/15 00:27:07;;;;;;;58.45;36.95;;;11.20;99.90;;;;;;4953826;29;20063;-75
2023/05/15 00:29:32;;;;;;;63.03;37.20;;;11.20;99.90;;;;;;4948893;29;20097;-75
2023/05/15 00:31:58;;;;;;;58.28;36.78;;;11.20;99.90;;;;;;4951151;29;20078;-75
2023/05/15 00:34:24;;;;;;;59.95;36.47;;;11.20;99.90;;;;;;4948023;29;20030;-75
2023/05/15 00:36:49;;;;;;;54.10;35.40;;;11.20;99.90;;;;;;4945483;29;20031;-75
2023/05/15 00:39:15;;;;;;;53.63;33.42;;;11.20;99.90;;;;;;4952382;29;20032;-75
2023/05/15 00:41:42;;;;;;;51.88;34.10;;;11.20;99.90;;;;;;4951712;28;20027;-75
2023/05/15 00:44:10;;;;;;;47.13;31.38;;;11.10;99.90;;;;;;4949520;28;20031;-75
2023/05/15 00:46:38;;;;;;;50.50;31.90;;;11.10;99.90;;;;;;4951243;29;20035;-75
2023/05/15 00:49:05;;;;;;;48.00;31.42;;;11.00;99.90;;;;;;4951247;29;20368;-75
2023/05/15 00:51:31;;;;;;;46.30;31.42;;;11.00;99.90;;;;;;4952268;29;20034;-75
2023/05/15 00:53:58;;;;;;;45.28;29.83;;;11.00;99.90;;;;;;4952125;29;20024;-75
2023/05/15 00:56:24;;;;;;;45.83;29.27;;;11.00;99.90;;;;;;4953714;28;20497;-74
2023/05/15 00:58:51;;;;;;;46.25;30.10;;;11.00;99.90;;;;;;4949719;29;20028;-75
2023/05/15 01:01:17;;;;;;;45.17;29.95;;;10.90;99.90;;;;;;4949929;29;20415;-75
2023/05/15 01:03:43;;;;;;;45.95;29.20;;;11.00;99.90;;;;;;4949152;29;20746;-75
2023/05/15 01:06:09;;;;;;;48.70;29.08;;;10.90;99.90;;;;;;4953253;29;20035;-74
2023/05/15 01:08:44;;;;;;;46.70;29.85;;;10.90;99.90;;;;;;4953527;29;20055;-75
2023/05/15 01:11:11;;;;;;;46.08;29.23;;;10.90;99.90;;;;;;4945168;28;20024;-75
2023/05/15 01:13:37;;;;;;;47.70;29.05;;;10.90;99.90;;;;;;4944653;29;20027;-75
2023/05/15 01:16:03;;;;;;;48.78;29.75;;;10.90;99.90;;;;;;4952380;29;20506;-75
2023/05/15 01:18:31;;;;;;;47.30;29.25;;;10.90;99.90;;;;;;4942486;29;20027;-74
2023/05/15 01:21:09;;;;;;;43.65;29.27;;;10.80;99.90;;;;;;4941219;28;20032;-75
2023/05/15 01:24:02;;;;;;;53.15;30.33;;;10.90;99.90;;;;;;4951872;29;20023;-75
2023/05/15 01:27:05;;;;;;;44.63;30.13;;;10.80;99.90;;;;;;4951164;28;20066;-75
2023/05/15 01:29:42;;;;;;;47.47;30.77;;;10.80;99.90;;;;;;4943495;29;20394;-75
2023/05/15 01:32:20;;;;;;;52.33;32.53;;;10.80;99.90;;;;;;4946888;29;20023;-75
2023/05/15 01:35:05;;;;;;;49.40;31.48;;;10.80;99.90;;;;;;4950741;28;20610;-75
2023/05/15 01:37:32;;;;;;;50.30;30.67;;;10.80;99.90;;;;;;4949692;28;20343;-75
2023/05/15 01:40:01;;;;;;;46.22;29.73;;;10.80;99.90;;;;;;4944734;29;20062;-75
2023/05/15 01:42:32;;;;;;;49.70;30.95;;;10.80;99.90;;;;;;4952005;29;20054;-75
2023/05/15 01:45:02;;;;;;;49.47;32.13;;;10.80;99.90;;;;;;4946085;29;20071;-75
2023/05/15 01:47:35;;;;;;;45.30;30.10;;;10.70;99.90;;;;;;4943131;29;20063;-75
2023/05/15 01:50:03;;;;;;;47.55;31.02;;;10.70;99.90;;;;;;4953224;29;20028;-75
2023/05/15 01:52:32;;;;;;;51.15;31.15;;;10.70;99.90;;;;;;4950515;28;20031;-75
2023/05/15 01:55:00;;;;;;;45.65;29.98;;;10.70;99.90;;;;;;4947649;28;20874;-75
2023/05/15 01:57:27;;;;;;;50.15;30.17;;;10.60;99.90;;;;;;4952722;29;20050;-75
2023/05/15 01:59:54;;;;;;;50.55;30.70;;;10.60;99.90;;;;;;4952046;28;20576;-75
2023/05/15 02:02:20;;;;;;;44.35;29.27;;;10.60;99.90;;;;;;4946390;29;20031;-75
2023/05/15 02:04:48;;;;;;;48.85;29.27;;;10.60;99.90;;;;;;4950160;29;20035;-75
2023/05/15 02:07:15;;;;;;;44.50;27.73;;;10.60;99.90;;;;;;4950600;29;20019;-75
2023/05/15 02:09:41;;;;;;;44.90;29.40;;;10.60;99.90;;;;;;4943467;29;20024;-75
2023/05/15 02:12:08;;;;;;;42.65;29.00;;;10.60;99.90;;;;;;4953662;28;20019;-75
2023/05/15 02:14:34;;;;;;;48.20;29.33;;;10.60;99.90;;;;;;4943885;28;20606;-75
2023/05/15 02:17:00;;;;;;;45.20;29.25;;;10.50;99.90;;;;;;4954965;29;20386;-75
2023/05/15 02:19:25;;;;;;;48.67;30.33;;;10.50;99.90;;;;;;4955702;28;20030;-75
2023/05/15 02:21:51;;;;;;;47.25;29.73;;;10.60;99.90;;;;;;4954832;28;20023;-75
2023/05/15 02:24:17;;;;;;;45.83;29.33;;;10.50;99.90;;;;;;4956221;28;20027;-75
2023/05/15 02:27:03;;;;;;;48.35;29.85;;;10.50;99.90;;;;;;4946852;29;20030;-75
2023/05/15 02:29:32;;;;;;;39.85;27.75;;;10.50;99.90;;;;;;4953732;29;20019;-74
2023/05/15 02:32:22;;;;;;;45.80;29.05;;;10.50;99.90;;;;;;4951574;29;20027;-75
2023/05/15 02:35:01;;;;;;;46.13;30.35;;;10.50;99.90;;;;;;4949320;29;20154;-75
2023/05/15 02:37:30;;;;;;;41.65;27.98;;;10.50;99.90;;;;;;4945349;28;20390;-75
2023/05/15 02:39:58;;;;;;;48.40;31.10;;;10.40;99.90;;;;;;4948421;29;20099;-75
2023/05/15 02:42:26;;;;;;;46.10;29.92;;;10.40;99.90;;;;;;4943609;29;20027;-75
2023/05/15 02:44:53;;;;;;;51.22;31.63;;;10.40;99.90;;;;;;4954462;28;20098;-75
2023/05/15 02:47:20;;;;;;;51.80;31.35;;;10.40;99.90;;;;;;4947437;28;20452;-75
2023/05/15 02:49:46;;;;;;;46.47;30.20;;;10.40;99.90;;;;;;4952220;29;20028;-75
2023/05/15 02:52:12;;;;;;;43.95;29.10;;;10.40;99.90;;;;;;4955625;29;20039;-75
2023/05/15 02:54:38;;;;;;;44.95;29.73;;;10.40;99.90;;;;;;4944960;28;20035;-75
2023/05/15 02:57:04;;;;;;;47.88;30.88;;;10.40;99.90;;;;;;4956029;29;20028;-74
2023/05/15 02:59:30;;;;;;;49.28;30.10;;;10.40;99.90;;;;;;4944865;28;20051;-75
2023/05/15 03:01:55;;;;;;;49.78;31.02;;;10.30;99.90;;;;;;4951326;29;20050;-75
2023/05/15 03:04:21;;;;;;;47.53;30.38;;;10.30;99.90;;;;;;4950185;29;20078;-75
2023/05/15 03:06:46;;;;;;;47.60;31.77;;;10.30;99.90;;;;;;4952607;28;20022;-74
2023/05/15 03:09:12;;;;;;;51.30;31.98;;;10.30;99.90;;;;;;4950939;29;20067;-74
2023/05/15 03:11:37;;;;;;;46.38;29.95;;;10.30;99.90;;;;;;4954615;29;20114;-75
2023/05/15 03:14:03;;;;;;;51.10;32.25;;;10.30;99.90;;;;;;4949987;28;20397;-75
2023/05/15 03:16:29;;;;;;;53.85;33.28;;;10.30;99.90;;;;;;4945107;28;20031;-75
2023/05/15 03:18:54;;;;;;;47.63;31.98;;;10.30;99.90;;;;;;4941068;29;20403;-75
2023/05/15 03:21:20;;;;;;;50.47;31.80;;;10.40;99.90;;;;;;4950549;29;20047;-74
2023/05/15 03:23:45;;;;;;;52.78;33.05;;;10.30;99.90;;;;;;4954675;29;20598;-75
2023/05/15 03:26:11;;;;;;;56.30;33.90;;;10.40;99.90;;;;;;4948601;29;20082;-74
2023/05/15 03:28:37;;;;;;;55.00;33.97;;;10.40;99.90;;;;;;4949724;29;20027;-75
2023/05/15 03:31:07;;;;;;;54.60;33.80;;;10.40;99.90;;;;;;4948777;28;20035;-75
2023/05/15 03:33:33;;;;;;;54.63;34.67;;;10.40;99.90;;;;;;4951429;29;20032;-75
2023/05/15 03:35:58;;;;;;;57.75;36.20;;;10.40;99.90;;;;;;4952416;28;20039;-75
2023/05/15 03:38:24;;;;;;;58.03;35.45;;;10.40;99.90;;;;;;4952696;29;20383;-74
2023/05/15 03:40:49;;;;;;;64.70;39.25;;;10.50;99.90;;;;;;4948785;29;20027;-75
2023/05/15 03:43:15;;;;;;;65.13;39.97;;;10.50;99.90;;;;;;4945903;29;20020;-75
2023/05/15 03:45:41;;;;;;;66.28;40.45;;;10.50;99.90;;;;;;4941631;29;20042;-75
2023/05/15 03:48:06;;;;;;;65.35;40.28;;;10.50;99.90;;;;;;4944145;29;20455;-75
2023/05/15 03:50:32;;;;;;;69.60;41.20;;;10.60;99.90;;;;;;4949473;29;20027;-75
2023/05/15 03:52:58;;;;;;;67.18;41.75;;;10.60;99.90;;;;;;4949340;29;20386;-75
2023/05/15 03:55:23;;;;;;;69.63;40.80;;;10.60;99.90;;;;;;4941841;29;20462;-75
2023/05/15 03:57:49;;;;;;;65.35;38.72;;;10.60;99.90;;;;;;4951030;29;20023;-75
2023/05/15 04:00:15;;;;;;;63.75;39.13;;;10.70;99.90;;;;;;4952203;28;20068;-75
2023/05/15 04:02:41;;;;;;;118.22;78.18;;;10.70;99.90;;;;;;4950798;29;20035;-74
2023/05/15 04:05:07;;;;;;;66.63;39.95;;;10.80;99.90;;;;;;4945645;28;20067;-75
2023/05/15 04:07:34;;;;;;;57.53;37.00;;;10.80;99.90;;;;;;4951233;29;20030;-75
2023/05/15 04:10:00;;;;;;;52.45;35.17;;;10.80;99.90;;;;;;4951395;29;20016;-75
2023/05/15 04:12:30;;;;;;;52.13;35.10;;;10.80;99.90;;;;;;4949009;29;20494;-75
2023/05/15 04:15:15;;;;;;;53.05;35.17;;;10.80;99.90;;;;;;4940827;29;20337;-75
2023/05/15 04:17:42;;;;;;;50.72;34.40;;;10.80;99.90;;;;;;4938298;29;20031;-75
2023/05/15 04:20:10;;;;;;;52.10;32.13;;;10.90;99.90;;;;;;4951321;29;20456;-75
2023/05/15 04:22:35;;;;;;;49.75;32.33;;;10.90;99.90;;;;;;4952570;29;20034;-75
2023/05/15 04:25:01;;;;;;;45.25;30.77;;;10.90;99.90;;;;;;4951246;29;20111;-75
2023/05/15 04:27:27;;;;;;;44.25;30.10;;;10.90;99.90;;;;;;4950784;29;20434;-75
2023/05/15 04:29:52;;;;;;;48.15;30.63;;;10.90;99.90;;;;;;4945279;28;20019;-75
2023/05/15 04:32:18;;;;;;;41.63;28.58;;;11.00;99.90;;;;;;4954239;29;20035;-75
2023/05/15 04:34:45;;;;;;;41.95;29.58;;;11.00;99.90;;;;;;4942112;29;20435;-75
2023/05/15 04:37:11;;;;;;;45.72;29.80;;;11.00;99.90;;;;;;4946222;29;20099;-75
2023/05/15 04:39:36;;;;;;;42.83;28.15;;;11.00;99.90;;;;;;4940339;28;20099;-75
2023/05/15 04:42:02;;;;;;;40.22;28.88;;;11.10;99.90;;;;;;4940095;28;20035;-75
2023/05/15 04:44:28;;;;;;;37.67;25.40;;;11.10;99.90;;;;;;4946737;28;20433;-74
2023/05/15 04:46:53;;;;;;;37.92;26.17;;;11.10;99.90;;;;;;4954054;28;20107;-75
2023/05/15 04:49:19;;;;;;;37.47;25.55;;;11.20;99.90;;;;;;4943328;29;20104;-75
2023/05/15 04:51:44;;;;;;;34.28;25.23;;;11.20;99.90;;;;;;4935820;29;20028;-74
2023/05/15 04:54:10;;;;;;;38.10;24.98;;;11.20;99.90;;;;;;4951954;29;20023;-75
2023/05/15 04:56:35;;;;;;;39.45;27.33;;;11.30;99.90;;;;;;4953898;28;20028;-74
2023/05/15 04:59:01;;;;;;;40.63;27.70;;;11.30;99.90;;;;;;4953359;28;20410;-74
2023/05/15 05:01:27;;;;;;;41.95;28.35;;;11.30;99.90;;;;;;4951321;28;20038;-74
2023/05/15 05:03:53;;;;;;;42.38;29.15;;;11.40;99.90;;;;;;4942264;28;20047;-75
2023/05/15 05:06:18;;;;;;;41.42;28.13;;;11.40;99.90;;;;;;4947390;29;20522;-74
2023/05/15 05:08:44;;;;;;;41.67;29.13;;;11.50;99.90;;;;;;4946687;29;20034;-75
2023/05/15 05:11:10;;;;;;;41.30;28.92;;;11.50;99.90;;;;;;4948179;28;20028;-74
2023/05/15 05:13:35;;;;;;;40.03;28.38;;;11.60;99.90;;;;;;4950768;28;20099;-74
2023/05/15 05:16:02;;;;;;;40.15;28.50;;;11.60;99.90;;;;;;4947679;28;20034;-74
2023/05/15 05:18:29;;;;;;;41.83;29.35;;;11.60;99.90;;;;;;4948421;29;20027;-74
2023/05/15 05:21:02;;;;;;;41.28;28.77;;;11.70;99.90;;;;;;4943644;29;20047;-74
2023/05/15 05:23:30;;;;;;;40.15;29.67;;;11.70;99.90;;;;;;4939076;28;20064;-74
2023/05/15 05:25:55;;;;;;;45.88;32.05;;;11.80;99.90;;;;;;4952126;29;20118;-74
2023/05/15 05:28:21;;;;;;;38.08;27.58;;;11.80;99.90;;;;;;4950478;29;20095;-74
2023/05/15 05:30:47;;;;;;;38.30;29.75;;;11.80;99.90;;;;;;4951903;29;20547;-74
2023/05/15 05:33:14;;;;;;;40.78;29.80;;;11.90;99.90;;;;;;4947222;28;20027;-74
2023/05/15 05:35:39;;;;;;;41.40;29.58;;;11.90;99.90;;;;;;4945671;28;20024;-74
2023/05/15 05:38:05;;;;;;;40.00;30.17;;;11.90;99.90;;;;;;4951081;28;20404;-74
2023/05/15 05:40:31;;;;;;;41.58;31.02;;;11.90;99.90;;;;;;4947792;28;20031;-74
2023/05/15 05:43:00;;;;;;;46.22;31.45;;;12.00;99.90;;;;;;4942640;28;20042;-74
2023/05/15 05:45:27;;;;;;;43.90;29.42;;;12.00;99.90;;;;;;4948695;28;20042;-74
2023/05/15 05:47:54;;;;;;;46.08;31.33;;;12.00;99.90;;;;;;4941386;29;20035;-74
2023/05/15 05:50:20;;;;;;;46.35;31.38;;;12.00;99.90;;;;;;4941728;29;20034;-74
2023/05/15 05:52:46;;;;;;;44.35;31.75;;;12.00;99.90;;;;;;4942917;29;20031;-74
2023/05/15 05:55:11;;;;;;;41.88;29.63;;;12.10;99.90;;;;;;4950644;29;20027;-75
2023/05/15 05:57:37;;;;;;;46.78;31.67;;;12.10;99.90;;;;;;4950118;28;20054;-75
2023/05/15 06:00:06;;;;;;;40.85;30.15;;;12.20;99.90;;;;;;4947815;28;20561;-75
2023/05/15 06:02:32;;;;;;;41.20;30.15;;;12.20;99.90;;;;;;4944678;29;20019;-75
2023/05/15 06:04:57;;;;;;;44.42;30.65;;;12.30;99.90;;;;;;4946865;28;20366;-75
2023/05/15 06:07:23;;;;;;;44.60;32.03;;;12.30;99.90;;;;;;4951891;28;20034;-75
2023/05/15 06:09:48;;;;;;;49.22;33.53;;;12.40;99.90;;;;;;4950903;29;20036;-75
2023/05/15 06:12:14;;;;;;;47.78;32.80;;;12.40;99.90;;;;;;4951513;29;20026;-75
2023/05/15 06:14:40;;;;;;;45.22;31.52;;;12.50;99.90;;;;;;4950511;29;20090;-74
2023/05/15 06:17:05;;;;;;;46.20;32.22;;;12.50;99.90;;;;;;4948833;29;20027;-74
2023/05/15 06:19:31;;;;;;;46.13;32.35;;;12.60;99.90;;;;;;4951058;29;20030;-75
2023/05/15 06:21:57;;;;;;;45.17;31.25;;;12.60;99.90;;;;;;4950129;29;20410;-75
2023/05/15 06:24:22;;;;;;;47.42;32.70;;;12.60;99.90;;;;;;4951153;29;20102;-75
2023/05/15 06:26:48;;;;;;;46.20;32.63;;;12.70;99.90;;;;;;4945190;29;20129;-75
2023/05/15 06:29:13;;;;;;;52.05;33.78;;;12.70;99.90;;;;;;4946286;29;20031;-75
2023/05/15 06:31:39;;;;;;;46.08;32.53;;;12.80;99.90;;;;;;4950237;29;20114;-75
2023/05/15 06:34:05;;;;;;;48.60;33.45;;;12.80;99.90;;;;;;4948084;28;20028;-75
2023/05/15 06:36:30;;;;;;;49.25;34.13;;;12.80;99.90;;;;;;4949982;29;20102;-75
2023/05/15 06:38:56;;;;;;;48.92;33.95;;;12.80;99.90;;;;;;4951909;28;20042;-75
2023/05/15 06:41:22;;;;;;;49.33;33.60;;;12.80;99.90;;;;;;4944903;29;20070;-75
2023/05/15 06:43:47;;;;;;;47.35;33.38;;;12.80;99.90;;;;;;4945692;29;20036;-75
2023/05/15 06:46:15;;;;;;;48.75;33.65;;;12.90;99.90;;;;;;4944317;29;20024;-75
2023/05/15 06:48:40;;;;;;;52.20;34.17;;;12.90;99.90;;;;;;4949676;29;20030;-75
2023/05/15 06:51:06;;;;;;;51.88;34.53;;;12.90;99.90;;;;;;4948764;29;20028;-75
2023/05/15 06:53:32;;;;;;;47.45;33.30;;;13.00;99.90;;;;;;4941841;29;20024;-75
2023/05/15 06:55:57;;;;;;;50.78;32.90;;;13.00;99.90;;;;;;4949577;29;20562;-75
2023/05/15 06:58:23;;;;;;;49.47;34.13;;;13.10;99.90;;;;;;4945620;29;20103;-75
2023/05/15 07:00:49;;;;;;;48.97;34.00;;;13.10;99.90;;;;;;4953223;28;20061;-75
2023/05/15 07:03:15;;;;;;;48.90;34.15;;;13.10;99.90;;;;;;4937651;29;20379;-75
2023/05/15 07:05:41;;;;;;;48.28;34.50;;;13.20;99.90;;;;;;4938704;29;20028;-75
2023/05/15 07:08:07;;;;;;;53.47;36.25;;;13.20;99.90;;;;;;4943447;29;20025;-75
2023/05/15 07:10:32;;;;;;;48.72;33.40;;;13.30;99.90;;;;;;4953786;29;20079;-75
2023/05/15 07:12:58;;;;;;;48.20;34.47;;;13.30;99.90;;;;;;4955701;28;20019;-75
2023/05/15 07:15:23;;;;;;;49.95;34.63;;;13.30;99.90;;;;;;4957201;29;20027;-75
2023/05/15 07:17:49;;;;;;;47.42;33.53;;;13.40;99.90;;;;;;4959518;28;20426;-75
2023/05/15 07:20:15;;;;;;;50.00;33.58;;;13.40;99.90;;;;;;4958159;28;20075;-75
2023/05/15 07:22:40;;;;;;;48.83;33.35;;;13.40;99.90;;;;;;4954084;29;20027;-75
2023/05/15 07:25:06;;;;;;;53.60;34.47;;;13.40;99.90;;;;;;4952898;28;20035;-75
2023/05/15 07:27:32;;;;;;;54.78;35.08;;;13.40;99.90;;;;;;4955036;28;20054;-74
2023/05/15 07:29:57;;;;;;;54.38;35.28;;;13.40;99.90;;;;;;4938043;29;20028;-75
2023/05/15 07:32:23;;;;;;;52.80;34.85;;;13.30;99.90;;;;;;4943931;29;20055;-75
2023/05/15 07:34:48;;;;;;;51.45;34.95;;;13.40;99.90;;;;;;4945767;29;20082;-75
2023/05/15 07:37:14;;;;;;;53.10;35.47;;;13.40;99.90;;;;;;4955307;29;20136;-75
2023/05/15 07:39:40;;;;;;;52.13;34.65;;;13.30;99.90;;;;;;4952577;29;20089;-74
2023/05/15 07:42:05;;;;;;;53.08;34.67;;;13.30;99.90;;;;;;4951773;28;20478;-75
2023/05/15 07:44:31;;;;;;;56.67;35.38;;;13.40;99.90;;;;;;4949648;28;20023;-75
2023/05/15 07:46:57;;;;;;;59.67;36.53;;;13.40;99.90;;;;;;4954055;29;20023;-75
2023/05/15 07:49:23;;;;;;;58.78;36.78;;;13.40;99.90;;;;;;4947919;28;20019;-74
2023/05/15 07:51:49;;;;;;;55.92;35.50;;;13.40;99.90;;;;;;4944035;28;20140;-75
2023/05/15 07:54:14;;;;;;;56.67;36.90;;;13.30;99.90;;;;;;4952865;29;20034;-75
2023/05/15 07:56:40;;;;;;;57.30;35.50;;;13.30;99.90;;;;;;4951808;29;20479;-75
2023/05/15 07:59:06;;;;;;;60.83;35.72;;;13.30;99.90;;;;;;4946831;28;20051;-75
2023/05/15 08:01:32;;;;;;;57.83;36.92;;;13.30;99.90;;;;;;4940123;29;20019;-75
2023/05/15 08:03:57;;;;;;;59.15;35.88;;;13.30;99.90;;;;;;4936920;29;20032;-75
2023/05/15 08:06:23;;;;;;;57.20;35.67;;;13.30;99.90;;;;;;4950300;29;20030;-75
2023/05/15 08:08:49;;;;;;;60.03;36.03;;;13.30;99.90;;;;;;4935620;29;20019;-75
2023/05/15 08:11:15;;;;;;;59.53;36.90;;;13.40;99.90;;;;;;4950168;29;20023;-75
2023/05/15 08:13:41;;;;;;;60.22;36.92;;;13.40;99.90;;;;;;4954638;29;20098;-74
2023/05/15 08:16:06;;;;;;;58.97;36.25;;;13.40;99.90;;;;;;4949868;29;20471;-75
2023/05/15 08:18:32;;;;;;;61.47;37.28;;;13.40;99.90;;;;;;4953685;28;20463;-75
2023/05/15 08:20:58;;;;;;;65.97;38.33;;;13.40;99.90;;;;;;4952940;29;20024;-75
2023/05/15 08:23:23;;;;;;;63.35;38.80;;;13.50;99.90;;;;;;4951331;29;20383;-75
2023/05/15 08:25:49;;;;;;;66.63;39.17;;;13.50;99.90;;;;;;4951071;29;20471;-75
2023/05/15 08:28:15;;;;;;;66.15;38.35;;;13.50;99.90;;;;;;4944317;29;20058;-75
2023/05/15 08:30:40;;;;;;;74.78;42.53;;;13.50;99.90;;;;;;4949008;29;20031;-75
2023/05/15 08:33:06;;;;;;;74.40;43.17;;;13.40;99.90;;;;;;4936174;29;20490;-74
2023/05/15 08:35:32;;;;;;;81.18;45.13;;;13.40;99.90;;;;;;4945879;29;20027;-75
2023/05/15 08:37:58;;;;;;;85.38;47.65;;;13.40;99.90;;;;;;4941663;29;20046;-74
2023/05/15 08:40:24;;;;;;;87.10;45.83;;;13.40;99.90;;;;;;4958421;28;20023;-74
2023/05/15 08:42:54;;;;;;;84.57;43.90;;;13.40;99.90;;;;;;4937378;29;20027;-75
2023/05/15 08:45:20;;;;;;;82.65;45.55;;;13.40;99.90;;;;;;4938093;29;20067;-75
2023/05/15 08:47:46;;;;;;;82.60;43.05;;;13.40;99.90;;;;;;4941924;29;20058;-75
2023/05/15 08:50:14;;;;;;;84.20;43.10;;;13.30;99.90;;;;;;4937216;29;20055;-75
2023/05/15 08:52:46;;;;;;;73.60;39.63;;;13.30;99.90;;;;;;4940408;29;20030;-75
2023/05/15 08:55:16;;;;;;;76.30;41.15;;;13.30;99.90;;;;;;4952902;29;20027;-75
2023/05/15 08:57:43;;;;;;;83.10;43.83;;;13.30;99.90;;;;;;4952585;29;20065;-75
2023/05/15 09:00:13;;;;;;;82.85;42.22;;;13.30;99.90;;;;;;4952955;29;20069;-74
2023/05/15 09:02:39;;;;;;;78.45;40.35;;;13.30;99.90;;;;;;4950273;28;20340;-75
2023/05/15 09:05:07;;;;;;;74.63;39.60;;;13.40;99.90;;;;;;4947005;28;20055;-75
2023/05/15 09:07:33;;;;;;;73.47;37.83;;;13.40;99.90;;;;;;4944179;29;20082;-74
2023/05/15 09:10:00;;;;;;;72.82;38.53;;;13.50;99.90;;;;;;4945475;28;20475;-75
2023/05/15 09:12:26;;;;;;;73.68;39.50;;;13.50;99.90;;;;;;4945213;28;20028;-75
2023/05/15 09:15:17;;;;;;;68.40;36.78;;;13.60;99.90;;;;;;4947203;29;20030;-75
2023/05/15 09:17:44;;;;;;;68.50;36.72;;;13.70;99.90;;;;;;4949648;29;20336;-75
2023/05/15 09:20:26;;;;;;;61.83;34.03;;;13.80;99.90;;;;;;4953001;28;20040;-75
2023/05/15 09:22:52;;;;;;;57.88;33.20;;;13.90;99.90;;;;;;4950069;29;20023;-75
2023/05/15 09:25:37;;;;;;;54.22;31.88;;;13.90;99.90;;;;;;4952715;29;20106;-75
2023/05/15 09:28:04;;;;;;;51.05;31.33;;;14.00;99.90;;;;;;4950260;29;20027;-75
2023/05/15 09:30:30;;;;;;;51.20;30.70;;;14.10;99.90;;;;;;4952111;29;20754;-75
2023/05/15 09:33:02;;;;;;;48.78;29.33;;;14.10;99.90;;;;;;4948769;29;20035;-75
2023/05/15 09:35:38;;;;;;;48.05;28.90;;;14.20;99.90;;;;;;4946109;28;20042;-75
2023/05/15 09:38:08;;;;;;;41.60;26.63;;;14.20;99.90;;;;;;4952078;28;20370;-75
2023/05/15 09:40:34;;;;;;;42.53;26.98;;;14.30;99.90;;;;;;4953003;29;20023;-75
2023/05/15 09:42:59;;;;;;;46.28;27.13;;;14.30;99.90;;;;;;4952802;28;20034;-75
2023/05/15 09:45:28;;;;;;;46.38;27.15;;;14.30;99.90;;;;;;4951538;28;20530;-74
2023/05/15 09:48:03;;;;;;;42.55;26.95;;;14.30;99.90;;;;;;4952462;28;20046;-75
2023/05/15 09:50:36;;;;;;;42.15;26.40;;;14.40;99.90;;;;;;4950832;29;20035;-75
2023/05/15 09:53:02;;;;;;;40.72;26.42;;;14.40;99.90;;;;;;4950513;28;20652;-75
2023/05/15 09:55:31;;;;;;;42.53;26.48;;;14.40;99.90;;;;;;4948663;29;20027;-75
2023/05/15 09:58:14;;;;;;;41.05;24.65;;;14.40;99.90;;;;;;4952899;29;20106;-75
2023/05/15 10:00:42;;;;;;;42.25;26.25;;;14.40;99.90;;;;;;4948480;29;20125;-75
2023/05/15 10:03:08;;;;;;;38.38;25.27;;;14.40;99.90;;;;;;4944178;29;20031;-75
2023/05/15 10:05:34;;;;;;;36.50;24.58;;;14.50;99.90;;;;;;4939424;29;20051;-75
2023/05/15 10:08:01;;;;;;;39.78;25.05;;;14.50;99.90;;;;;;4951012;28;20038;-75
2023/05/15 10:10:27;;;;;;;39.33;24.67;;;14.60;99.90;;;;;;4945488;29;20027;-75
2023/05/15 10:12:57;;;;;;;38.13;25.33;;;14.60;99.90;;;;;;4939507;28;20375;-75
2023/05/15 10:15:22;;;;;;;38.90;24.92;;;14.50;99.90;;;;;;4942656;29;20123;-75
2023/05/15 10:17:50;;;;;;;36.55;22.75;;;14.50;99.90;;;;;;4950374;29;20466;-75
2023/05/15 10:20:17;;;;;;;35.67;21.88;;;14.40;99.90;;;;;;4956114;29;20536;-75
2023/05/15 10:22:47;;;;;;;32.30;21.83;;;14.40;99.90;;;;;;4956601;29;20527;-75
2023/05/15 10:25:15;;;;;;;33.22;21.67;;;14.30;99.90;;;;;;4948954;29;20027;-75
2023/05/15 10:27:42;;;;;;;29.92;19.02;;;14.30;99.90;;;;;;4955021;29;20031;-75
2023/05/15 10:30:10;;;;;;;24.80;16.45;;;14.30;99.90;;;;;;4952626;29;20015;-75
2023/05/15 10:32:37;;;;;;;18.30;13.13;;;14.40;99.90;;;;;;4950803;29;20019;-75
2023/05/15 10:35:03;;;;;;;18.55;11.60;;;14.40;99.90;;;;;;4954364;29;20038;-75
2023/05/15 10:37:29;;;;;;;15.20;9.90;;;14.50;99.90;;;;;;4953843;28;20020;-75
2023/05/15 10:39:56;;;;;;;17.45;9.50;;;14.60;99.90;;;;;;4952216;28;20085;-75
2023/05/15 10:42:24;;;;;;;13.35;8.88;;;14.70;99.90;;;;;;4955105;29;20015;-75
2023/05/15 10:44:53;;;;;;;11.27;7.00;;;14.70;99.90;;;;;;4954308;28;20019;-75
2023/05/15 10:47:19;;;;;;;10.20;6.10;;;14.80;99.90;;;;;;4952634;29;20032;-75
2023/05/15 10:49:45;;;;;;;8.10;5.03;;;14.80;99.90;;;;;;4949748;29;20395;-75
2023/05/15 10:52:10;;;;;;;9.18;5.05;;;14.80;99.90;;;;;;4951883;29;20023;-75
2023/05/15 10:54:36;;;;;;;9.18;4.60;;;14.70;99.90;;;;;;4955843;29;20084;-75
2023/05/15 10:57:03;;;;;;;9.43;4.93;;;14.70;99.90;;;;;;4948113;29;20046;-75
2023/05/15 10:59:33;;;;;;;11.07;4.82;;;14.70;99.90;;;;;;4955557;28;20126;-75
2023/05/15 11:02:24;;;;;;;12.70;5.85;;;14.70;99.90;;;;;;4950288;29;20110;-75
2023/05/15 11:04:59;;;;;;;14.40;6.63;;;14.80;99.90;;;;;;4954475;29;20074;-75
2023/05/15 11:07:25;;;;;;;13.70;6.90;;;14.70;99.90;;;;;;4943994;29;20115;-75
2023/05/15 11:09:55;;;;;;;15.20;8.23;;;14.70;99.90;;;;;;4943930;29;20067;-75
2023/05/15 11:12:21;;;;;;;22.80;9.35;;;14.60;99.90;;;;;;4955409;28;20034;-74
2023/05/15 11:14:53;;;;;;;23.65;9.77;;;14.60;99.90;;;;;;4953897;28;20032;-74
2023/05/15 11:17:21;;;;;;;23.42;9.40;;;14.40;99.90;;;;;;4947027;29;20030;-75
2023/05/15 11:19:50;;;;;;;17.42;8.45;;;14.20;99.90;;;;;;4951272;29;20031;-75
2023/05/15 11:22:25;;;;;;;14.00;7.00;;;14.10;99.90;;;;;;4953238;29;20046;-74
2023/05/15 11:24:58;;;;;;;15.77;6.43;;;14.00;99.90;;;;;;4951598;28;20109;-75
2023/05/15 11:27:53;;;;;;;19.67;5.72;;;13.90;99.90;;;;;;4947638;28;20487;-75
2023/05/15 11:30:21;;;;;;;12.90;5.23;;;14.00;99.90;;;;;;4949109;28;20098;-74
2023/05/15 11:32:46;;;;;;;14.35;4.90;;;14.10;99.90;;;;;;4950058;28;20122;-75
2023/05/15 11:35:32;;;;;;;16.80;4.90;;;14.20;99.90;;;;;;4948580;28;20079;-75
2023/05/15 11:37:58;;;;;;;12.88;4.82;;;14.20;99.90;;;;;;4950111;28;20028;-75
2023/05/15 11:40:32;;;;;;;14.77;4.68;;;14.30;99.90;;;;;;4951223;29;20374;-75
2023/05/15 11:43:00;;;;;;;14.48;4.75;;;14.40;99.90;;;;;;4954456;28;20393;-75
2023/05/15 11:45:30;;;;;;;14.68;5.00;;;14.40;99.90;;;;;;4951270;28;20403;-75
2023/05/15 11:47:59;;;;;;;16.30;4.85;;;14.40;99.90;;;;;;4952100;29;20086;-75
2023/05/15 11:50:24;;;;;;;20.73;5.63;;;14.30;99.90;;;;;;4941844;29;20102;-75
2023/05/15 11:52:51;;;;;;;19.23;5.45;;;14.30;99.90;;;;;;4945616;29;20098;-75
2023/05/15 11:55:18;;;;;;;19.88;5.40;;;14.20;99.90;;;;;;4951491;28;20023;-75
2023/05/15 11:57:47;;;;;;;28.25;5.93;;;14.10;99.90;;;;;;4956517;28;20092;-75
2023/05/15 12:00:13;;;;;;;17.63;5.05;;;14.10;99.90;;;;;;4947372;29;20052;-75
2023/05/15 12:02:39;;;;;;;16.27;4.32;;;14.10;99.90;;;;;;4947257;29;20066;-75
2023/05/15 12:05:08;;;;;;;13.10;3.97;;;13.90;99.90;;;;;;4954462;29;20544;-75
2023/05/15 12:07:39;;;;;;;16.63;3.90;;;13.90;99.90;;;;;;4944376;28;20030;-75
2023/05/15 12:10:06;;;;;;;14.10;3.90;;;13.80;99.90;;;;;;4938833;28;20483;-75
2023/05/15 12:12:33;;;;;;;18.45;3.88;;;13.80;99.90;;;;;;4950372;29;20031;-75
2023/05/15 12:14:59;;;;;;;14.00;3.65;;;13.80;99.90;;;;;;4948741;29;20178;-75
2023/05/15 12:17:26;;;;;;;13.80;4.07;;;13.90;99.90;;;;;;4949434;29;20522;-75
2023/05/15 12:19:54;;;;;;;17.77;4.07;;;13.90;99.90;;;;;;4952131;29;20045;-75
2023/05/15 12:22:20;;;;;;;18.95;3.95;;;14.00;99.90;;;;;;4954524;28;20534;-75
2023/05/15 12:24:46;;;;;;;14.00;3.72;;;14.10;99.90;;;;;;4951473;28;20031;-74
2023/05/15 12:27:12;;;;;;;16.38;4.10;;;14.20;99.90;;;;;;4950595;29;20023;-75
2023/05/15 12:29:39;;;;;;;17.70;4.25;;;14.30;99.90;;;;;;4950822;28;20019;-75